sensor_id;sensor_type;location;lat;lon;timestamp;P1;durP1;ratioP1;P2;durP2;ratioP2
7969;SDS011;4030;52.362;9.206;2023-05-19T00:00:15;3.85;;;1.80;;
7969;SDS011;4030;52.362;9.206;2023-05-19T00:02:42;3.70;;;1.80;;
7969;SDS011;4030;52.362;9.206;2023-05-19T00:05:09;2.38;;;1.83;;
7969;SDS011;4030;52.362;9.206;2023-05-19T00:07:37;3.22;;;1.73;;
7969;SDS011;4030;52.362;9.206;2023-05-19T00:10:03;3.75;;;2.20;;
7969;SDS011;4030;52.362;9.206;2023-05-19T00:12:30;3.42;;;1.80;;
7969;SDS011;4030;52.362;9.206;2023-05-19T00:14:56;3.20;;;1.80;;
7969;SDS011;4030;52.362;9.206;2023-05-19T00:17:22;3.10;;;1.88;;
7969;SDS011;4030;52.362;9.206;2023-05-19T00:19:48;2.92;;;1.80;;
7969;SDS011;4030;52.362;9.206;2023-05-19T00:22:14;3.70;;;1.77;;
7969;SDS011;4030;52.362;9.206;2023-05-19T00:24:40;4.05;;;2.10;;
7969;SDS011;4030;52.362;9.206;2023-05-19T00:27:05;2.97;;;1.80;;
7969;SDS011;4030;52.362;9.206;2023-05-19T00:29:31;3.33;;;1.85;;
7969;SDS011;4030;52.362;9.206;2023-05-19T00:31:57;3.25;;;2.10;;
7969;SDS011;4030;52.362;9.206;2023-05-19T00:34:23;2.38;;;1.52;;
7969;SDS011;4030;52.362;9.206;2023-05-19T00:36:48;3.80;;;2.22;;
7969;SDS011;4030;52.362;9.206;2023-05-19T00:39:15;5.10;;;2.00;;
7969;SDS011;4030;52.362;9.206;2023-05-19T00:41:40;4.22;;;2.13;;
7969;SDS011;4030;52.362;9.206;2023-05-19T00:44:06;4.18;;;1.90;;
7969;SDS011;4030;52.362;9.206;2023-05-19T00:46:32;3.97;;;1.95;;
7969;SDS011;4030;52.362;9.206;2023-05-19T00:48:58;3.67;;;2.13;;
7969;SDS011;4030;52.362;9.206;2023-05-19T00:51:26;3.28;;;2.10;;
7969;SDS011;4030;52.362;9.206;2023-05-19T00:53:53;3.58;;;1.98;;
7969;SDS011;4030;52.362;9.206;2023-05-19T00:56:19;5.05;;;2.00;;
7969;SDS011;4030;52.362;9.206;2023-05-19T00:58:45;4.07;;;2.00;;
7969;SDS011;4030;52.362;9.206;2023-05-19T01:01:12;5.47;;;2.28;;
7969;SDS011;4030;52.362;9.206;2023-05-19T01:03:38;4.40;;;2.03;;
7969;SDS011;4030;52.362;9.206;2023-05-19T01:06:06;4.25;;;1.90;;
7969;SDS011;4030;52.362;9.206;2023-05-19T01:08:32;4.47;;;1.90;;
7969;SDS011;4030;52.362;9.206;2023-05-19T01:11:00;3.25;;;1.70;;
7969;SDS011;4030;52.362;9.206;2023-05-19T01:13:26;2.80;;;1.63;;
7969;SDS011;4030;52.362;9.206;2023-05-19T01:16:10;3.13;;;1.83;;
7969;SDS011;4030;52.362;9.206;2023-05-19T01:19:00;3.53;;;1.70;;
7969;SDS011;4030;52.362;9.206;2023-05-19T01:30:25;3.15;;;1.85;;
7969;SDS011;4030;52.362;9.206;2023-05-19T01:33:02;4.75;;;2.28;;
7969;SDS011;4030;52.362;9.206;2023-05-19T01:35:31;3.83;;;2.20;;
7969;SDS011;4030;52.362;9.206;2023-05-19T01:38:01;4.35;;;2.20;;
7969;SDS011;4030;52.362;9.206;2023-05-19T01:40:29;3.38;;;1.85;;
7969;SDS011;4030;52.362;9.206;2023-05-19T01:42:56;5.45;;;1.90;;
7969;SDS011;4030;52.362;9.206;2023-05-19T01:45:23;3.80;;;2.20;;
7969;SDS011;4030;52.362;9.206;2023-05-19T01:47:55;4.20;;;2.20;;
7969;SDS011;4030;52.362;9.206;2023-05-19T01:50:24;2.88;;;1.70;;
7969;SDS011;4030;52.362;9.206;2023-05-19T01:52:50;4.20;;;2.00;;
7969;SDS011;4030;52.362;9.206;2023-05-19T01:55:16;3.97;;;2.10;;
7969;SDS011;4030;52.362;9.206;2023-05-19T01:57:49;4.55;;;2.38;;
7969;SDS011;4030;52.362;9.206;2023-05-19T02:03:39;4.60;;;2.08;;
7969;SDS011;4030;52.362;9.206;2023-05-19T02:06:51;4.00;;;1.98;;
7969;SDS011;4030;52.362;9.206;2023-05-19T02:12:19;3.50;;;2.10;;
7969;SDS011;4030;52.362;9.206;2023-05-19T02:18:04;3.15;;;1.88;;
7969;SDS011;4030;52.362;9.206;2023-05-19T02:20:30;4.30;;;2.08;;
7969;SDS011;4030;52.362;9.206;2023-05-19T02:22:56;3.75;;;2.00;;
7969;SDS011;4030;52.362;9.206;2023-05-19T02:25:22;2.88;;;1.95;;
7969;SDS011;4030;52.362;9.206;2023-05-19T02:27:49;4.80;;;2.03;;
7969;SDS011;4030;52.362;9.206;2023-05-19T02:30:15;4.30;;;2.13;;
7969;SDS011;4030;52.362;9.206;2023-05-19T02:32:41;3.92;;;2.00;;
7969;SDS011;4030;52.362;9.206;2023-05-19T02:35:10;4.80;;;2.15;;
7969;SDS011;4030;52.362;9.206;2023-05-19T02:37:37;3.80;;;2.10;;
7969;SDS011;4030;52.362;9.206;2023-05-19T02:40:03;4.03;;;2.08;;
7969;SDS011;4030;52.362;9.206;2023-05-19T02:42:30;3.58;;;1.95;;
7969;SDS011;4030;52.362;9.206;2023-05-19T02:44:55;4.93;;;2.22;;
7969;SDS011;4030;52.362;9.206;2023-05-19T02:47:22;4.57;;;2.30;;
7969;SDS011;4030;52.362;9.206;2023-05-19T02:49:47;4.80;;;2.30;;
7969;SDS011;4030;52.362;9.206;2023-05-19T02:52:13;6.30;;;2.55;;
7969;SDS011;4030;52.362;9.206;2023-05-19T02:54:39;3.92;;;2.20;;
7969;SDS011;4030;52.362;9.206;2023-05-19T02:57:05;5.25;;;2.15;;
7969;SDS011;4030;52.362;9.206;2023-05-19T02:59:31;4.05;;;2.13;;
7969;SDS011;4030;52.362;9.206;2023-05-19T03:01:58;3.45;;;2.10;;
7969;SDS011;4030;52.362;9.206;2023-05-19T03:04:26;4.35;;;2.10;;
7969;SDS011;4030;52.362;9.206;2023-05-19T03:06:52;4.80;;;2.60;;
7969;SDS011;4030;52.362;9.206;2023-05-19T03:09:18;3.83;;;2.10;;
7969;SDS011;4030;52.362;9.206;2023-05-19T03:11:44;4.68;;;2.25;;
7969;SDS011;4030;52.362;9.206;2023-05-19T03:14:10;2.70;;;2.08;;
7969;SDS011;4030;52.362;9.206;2023-05-19T03:16:37;5.32;;;2.38;;
7969;SDS011;4030;52.362;9.206;2023-05-19T03:19:07;3.42;;;2.00;;
7969;SDS011;4030;52.362;9.206;2023-05-19T03:21:33;4.57;;;2.40;;
7969;SDS011;4030;52.362;9.206;2023-05-19T03:24:02;4.63;;;2.30;;
7969;SDS011;4030;52.362;9.206;2023-05-19T03:26:28;4.65;;;2.38;;
7969;SDS011;4030;52.362;9.206;2023-05-19T03:28:54;3.55;;;2.17;;
7969;SDS011;4030;52.362;9.206;2023-05-19T03:31:19;4.30;;;2.40;;
7969;SDS011;4030;52.362;9.206;2023-05-19T03:33:45;3.85;;;2.20;;
7969;SDS011;4030;52.362;9.206;2023-05-19T03:36:11;4.47;;;2.33;;
7969;SDS011;4030;52.362;9.206;2023-05-19T03:38:37;4.32;;;2.00;;
7969;SDS011;4030;52.362;9.206;2023-05-19T03:41:03;4.07;;;2.40;;
7969;SDS011;4030;52.362;9.206;2023-05-19T03:43:29;4.43;;;2.33;;
7969;SDS011;4030;52.362;9.206;2023-05-19T03:45:55;4.75;;;2.53;;
7969;SDS011;4030;52.362;9.206;2023-05-19T03:48:21;3.67;;;2.20;;
7969;SDS011;4030;52.362;9.206;2023-05-19T03:50:47;3.50;;;2.15;;
7969;SDS011;4030;52.362;9.206;2023-05-19T03:53:14;4.85;;;2.17;;
7969;SDS011;4030;52.362;9.206;2023-05-19T03:55:39;4.22;;;2.33;;
7969;SDS011;4030;52.362;9.206;2023-05-19T03:58:05;3.15;;;1.80;;
7969;SDS011;4030;52.362;9.206;2023-05-19T04:00:31;4.05;;;2.40;;
7969;SDS011;4030;52.362;9.206;2023-05-19T04:02:57;4.72;;;2.25;;
7969;SDS011;4030;52.362;9.206;2023-05-19T04:05:24;3.67;;;2.22;;
7969;SDS011;4030;52.362;9.206;2023-05-19T04:07:50;4.50;;;2.38;;
7969;SDS011;4030;52.362;9.206;2023-05-19T04:10:16;5.85;;;2.22;;
7969;SDS011;4030;52.362;9.206;2023-05-19T04:12:42;4.43;;;2.20;;
7969;SDS011;4030;52.362;9.206;2023-05-19T04:15:08;3.70;;;2.17;;
7969;SDS011;4030;52.362;9.206;2023-05-19T04:17:36;4.28;;;2.33;;
7969;SDS011;4030;52.362;9.206;2023-05-19T04:20:02;6.10;;;2.10;;
7969;SDS011;4030;52.362;9.206;2023-05-19T04:22:29;3.17;;;2.13;;
7969;SDS011;4030;52.362;9.206;2023-05-19T04:24:55;3.13;;;2.00;;
7969;SDS011;4030;52.362;9.206;2023-05-19T04:27:20;6.20;;;2.38;;
7969;SDS011;4030;52.362;9.206;2023-05-19T04:29:46;4.18;;;2.20;;
7969;SDS011;4030;52.362;9.206;2023-05-19T04:32:13;3.70;;;1.98;;
7969;SDS011;4030;52.362;9.206;2023-05-19T04:34:41;2.92;;;1.80;;
7969;SDS011;4030;52.362;9.206;2023-05-19T04:37:09;3.95;;;2.17;;
7969;SDS011;4030;52.362;9.206;2023-05-19T04:39:37;4.20;;;2.30;;
7969;SDS011;4030;52.362;9.206;2023-05-19T04:42:07;3.75;;;2.00;;
7969;SDS011;4030;52.362;9.206;2023-05-19T04:44:34;3.97;;;2.00;;
7969;SDS011;4030;52.362;9.206;2023-05-19T04:47:01;4.35;;;2.30;;
7969;SDS011;4030;52.362;9.206;2023-05-19T04:49:30;4.32;;;2.33;;
7969;SDS011;4030;52.362;9.206;2023-05-19T04:51:56;4.38;;;2.25;;
7969;SDS011;4030;52.362;9.206;2023-05-19T04:54:22;3.85;;;2.20;;
7969;SDS011;4030;52.362;9.206;2023-05-19T04:56:47;4.93;;;2.30;;
7969;SDS011;4030;52.362;9.206;2023-05-19T04:59:13;4.47;;;2.50;;
7969;SDS011;4030;52.362;9.206;2023-05-19T05:01:39;3.65;;;2.30;;
7969;SDS011;4030;52.362;9.206;2023-05-19T05:04:06;4.85;;;2.30;;
7969;SDS011;4030;52.362;9.206;2023-05-19T05:06:32;4.55;;;2.22;;
7969;SDS011;4030;52.362;9.206;2023-05-19T05:08:58;5.35;;;2.33;;
7969;SDS011;4030;52.362;9.206;2023-05-19T05:11:24;4.55;;;2.40;;
7969;SDS011;4030;52.362;9.206;2023-05-19T05:13:50;4.15;;;2.42;;
7969;SDS011;4030;52.362;9.206;2023-05-19T05:16:16;5.50;;;2.72;;
7969;SDS011;4030;52.362;9.206;2023-05-19T05:18:43;4.97;;;2.38;;
7969;SDS011;4030;52.362;9.206;2023-05-19T05:21:10;5.57;;;2.70;;
7969;SDS011;4030;52.362;9.206;2023-05-19T05:23:36;4.15;;;2.45;;
7969;SDS011;4030;52.362;9.206;2023-05-19T05:26:04;6.07;;;2.50;;
7969;SDS011;4030;52.362;9.206;2023-05-19T05:28:42;5.70;;;2.40;;
7969;SDS011;4030;52.362;9.206;2023-05-19T05:31:08;4.03;;;2.47;;
7969;SDS011;4030;52.362;9.206;2023-05-19T05:33:34;5.63;;;2.50;;
7969;SDS011;4030;52.362;9.206;2023-05-19T05:36:00;4.97;;;2.35;;
7969;SDS011;4030;52.362;9.206;2023-05-19T05:38:26;5.03;;;2.50;;
7969;SDS011;4030;52.362;9.206;2023-05-19T05:40:52;5.20;;;2.70;;
7969;SDS011;4030;52.362;9.206;2023-05-19T05:43:18;5.40;;;2.60;;
7969;SDS011;4030;52.362;9.206;2023-05-19T05:45:44;5.80;;;2.10;;
7969;SDS011;4030;52.362;9.206;2023-05-19T05:48:10;5.15;;;2.50;;
7969;SDS011;4030;52.362;9.206;2023-05-19T05:50:36;3.70;;;2.15;;
7969;SDS011;4030;52.362;9.206;2023-05-19T05:53:02;7.50;;;2.72;;
7969;SDS011;4030;52.362;9.206;2023-05-19T05:55:31;5.93;;;2.38;;
7969;SDS011;4030;52.362;9.206;2023-05-19T05:57:57;5.97;;;2.60;;
7969;SDS011;4030;52.362;9.206;2023-05-19T06:00:23;3.85;;;2.38;;
7969;SDS011;4030;52.362;9.206;2023-05-19T06:02:51;4.30;;;2.47;;
7969;SDS011;4030;52.362;9.206;2023-05-19T06:05:17;5.63;;;2.40;;
7969;SDS011;4030;52.362;9.206;2023-05-19T06:07:43;5.55;;;2.80;;
7969;SDS011;4030;52.362;9.206;2023-05-19T06:10:09;4.65;;;2.75;;
7969;SDS011;4030;52.362;9.206;2023-05-19T06:12:35;6.32;;;2.90;;
7969;SDS011;4030;52.362;9.206;2023-05-19T06:15:04;5.47;;;2.22;;
7969;SDS011;4030;52.362;9.206;2023-05-19T06:17:31;6.00;;;2.90;;
7969;SDS011;4030;52.362;9.206;2023-05-19T06:19:59;5.40;;;2.65;;
7969;SDS011;4030;52.362;9.206;2023-05-19T06:22:26;3.70;;;2.50;;
7969;SDS011;4030;52.362;9.206;2023-05-19T06:24:52;5.25;;;2.80;;
7969;SDS011;4030;52.362;9.206;2023-05-19T06:27:18;5.78;;;2.92;;
7969;SDS011;4030;52.362;9.206;2023-05-19T06:29:43;5.85;;;2.65;;
7969;SDS011;4030;52.362;9.206;2023-05-19T06:32:09;6.07;;;2.92;;
7969;SDS011;4030;52.362;9.206;2023-05-19T06:34:35;6.30;;;2.65;;
7969;SDS011;4030;52.362;9.206;2023-05-19T06:37:02;4.90;;;2.38;;
7969;SDS011;4030;52.362;9.206;2023-05-19T06:39:28;5.88;;;2.95;;
7969;SDS011;4030;52.362;9.206;2023-05-19T06:41:54;4.00;;;2.22;;
7969;SDS011;4030;52.362;9.206;2023-05-19T06:44:21;5.93;;;2.70;;
7969;SDS011;4030;52.362;9.206;2023-05-19T06:46:46;6.22;;;2.17;;
7969;SDS011;4030;52.362;9.206;2023-05-19T06:49:12;6.30;;;2.50;;
7969;SDS011;4030;52.362;9.206;2023-05-19T06:51:38;3.83;;;2.20;;
7969;SDS011;4030;52.362;9.206;2023-05-19T06:54:04;5.68;;;2.20;;
7969;SDS011;4030;52.362;9.206;2023-05-19T06:56:29;4.60;;;2.10;;
7969;SDS011;4030;52.362;9.206;2023-05-19T06:58:55;4.70;;;2.28;;
7969;SDS011;4030;52.362;9.206;2023-05-19T07:01:21;4.97;;;2.67;;
7969;SDS011;4030;52.362;9.206;2023-05-19T07:03:51;4.65;;;2.13;;
7969;SDS011;4030;52.362;9.206;2023-05-19T07:06:17;3.75;;;2.20;;
7969;SDS011;4030;52.362;9.206;2023-05-19T07:08:42;6.78;;;2.97;;
7969;SDS011;4030;52.362;9.206;2023-05-19T07:11:08;4.60;;;2.20;;
7969;SDS011;4030;52.362;9.206;2023-05-19T07:13:36;4.15;;;2.10;;
7969;SDS011;4030;52.362;9.206;2023-05-19T07:16:02;4.50;;;2.45;;
7969;SDS011;4030;52.362;9.206;2023-05-19T07:18:27;4.93;;;2.50;;
7969;SDS011;4030;52.362;9.206;2023-05-19T07:20:56;5.68;;;2.60;;
7969;SDS011;4030;52.362;9.206;2023-05-19T07:23:22;5.82;;;2.67;;
7969;SDS011;4030;52.362;9.206;2023-05-19T07:25:48;7.10;;;2.95;;
7969;SDS011;4030;52.362;9.206;2023-05-19T07:28:17;5.82;;;2.53;;
7969;SDS011;4030;52.362;9.206;2023-05-19T07:30:43;6.93;;;2.92;;
7969;SDS011;4030;52.362;9.206;2023-05-19T07:33:09;7.75;;;3.17;;
7969;SDS011;4030;52.362;9.206;2023-05-19T07:35:35;6.47;;;2.97;;
7969;SDS011;4030;52.362;9.206;2023-05-19T07:38:01;7.82;;;3.17;;
7969;SDS011;4030;52.362;9.206;2023-05-19T07:40:27;8.95;;;3.78;;
7969;SDS011;4030;52.362;9.206;2023-05-19T07:42:53;7.75;;;3.70;;
7969;SDS011;4030;52.362;9.206;2023-05-19T07:45:19;10.82;;;4.00;;
7969;SDS011;4030;52.362;9.206;2023-05-19T07:47:45;8.05;;;3.67;;
7969;SDS011;4030;52.362;9.206;2023-05-19T07:50:11;11.50;;;4.45;;
7969;SDS011;4030;52.362;9.206;2023-05-19T07:52:37;12.45;;;4.60;;
7969;SDS011;4030;52.362;9.206;2023-05-19T07:55:02;13.38;;;4.75;;
7969;SDS011;4030;52.362;9.206;2023-05-19T07:57:28;17.13;;;5.60;;
7969;SDS011;4030;52.362;9.206;2023-05-19T07:59:54;10.52;;;4.53;;
7969;SDS011;4030;52.362;9.206;2023-05-19T08:02:20;14.55;;;5.63;;
7969;SDS011;4030;52.362;9.206;2023-05-19T08:04:46;11.95;;;4.72;;
7969;SDS011;4030;52.362;9.206;2023-05-19T08:07:13;13.85;;;5.13;;
7969;SDS011;4030;52.362;9.206;2023-05-19T08:09:38;15.63;;;5.03;;
7969;SDS011;4030;52.362;9.206;2023-05-19T08:12:04;10.63;;;4.90;;
7969;SDS011;4030;52.362;9.206;2023-05-19T08:14:30;11.40;;;4.53;;
7969;SDS011;4030;52.362;9.206;2023-05-19T08:16:57;7.38;;;3.47;;
7969;SDS011;4030;52.362;9.206;2023-05-19T08:19:23;5.75;;;2.78;;
7969;SDS011;4030;52.362;9.206;2023-05-19T08:21:48;6.72;;;3.20;;
7969;SDS011;4030;52.362;9.206;2023-05-19T08:24:14;8.30;;;3.60;;
7969;SDS011;4030;52.362;9.206;2023-05-19T08:26:40;8.43;;;3.45;;
7969;SDS011;4030;52.362;9.206;2023-05-19T08:29:07;5.80;;;2.92;;
7969;SDS011;4030;52.362;9.206;2023-05-19T08:31:33;6.18;;;2.75;;
7969;SDS011;4030;52.362;9.206;2023-05-19T08:33:59;5.40;;;2.80;;
7969;SDS011;4030;52.362;9.206;2023-05-19T08:36:24;5.15;;;2.50;;
7969;SDS011;4030;52.362;9.206;2023-05-19T08:38:50;5.07;;;2.63;;
7969;SDS011;4030;52.362;9.206;2023-05-19T08:41:16;5.97;;;2.55;;
7969;SDS011;4030;52.362;9.206;2023-05-19T08:43:42;7.78;;;2.50;;
7969;SDS011;4030;52.362;9.206;2023-05-19T08:46:07;6.43;;;2.40;;
7969;SDS011;4030;52.362;9.206;2023-05-19T08:48:38;5.82;;;2.45;;
7969;SDS011;4030;52.362;9.206;2023-05-19T08:51:19;10.15;;;2.40;;
7969;SDS011;4030;52.362;9.206;2023-05-19T08:54:15;5.47;;;2.25;;
7969;SDS011;4030;52.362;9.206;2023-05-19T08:56:43;4.25;;;1.80;;
7969;SDS011;4030;52.362;9.206;2023-05-19T08:59:10;9.55;;;2.03;;
7969;SDS011;4030;52.362;9.206;2023-05-19T09:01:38;3.63;;;1.73;;
7969;SDS011;4030;52.362;9.206;2023-05-19T09:04:06;5.78;;;1.95;;
7969;SDS011;4030;52.362;9.206;2023-05-19T09:06:32;7.15;;;1.95;;
7969;SDS011;4030;52.362;9.206;2023-05-19T09:08:57;5.90;;;1.77;;
7969;SDS011;4030;52.362;9.206;2023-05-19T09:11:23;5.30;;;1.80;;
7969;SDS011;4030;52.362;9.206;2023-05-19T09:13:50;4.72;;;1.88;;
7969;SDS011;4030;52.362;9.206;2023-05-19T09:16:15;5.53;;;2.00;;
7969;SDS011;4030;52.362;9.206;2023-05-19T09:18:52;5.65;;;1.88;;
7969;SDS011;4030;52.362;9.206;2023-05-19T09:21:28;5.18;;;1.70;;
7969;SDS011;4030;52.362;9.206;2023-05-19T09:24:03;5.80;;;1.67;;
7969;SDS011;4030;52.362;9.206;2023-05-19T09:26:36;4.47;;;1.80;;
7969;SDS011;4030;52.362;9.206;2023-05-19T09:29:13;4.90;;;1.70;;
7969;SDS011;4030;52.362;9.206;2023-05-19T09:31:51;2.78;;;1.50;;
7969;SDS011;4030;52.362;9.206;2023-05-19T09:34:20;2.92;;;1.40;;
7969;SDS011;4030;52.362;9.206;2023-05-19T09:36:49;5.35;;;1.60;;
7969;SDS011;4030;52.362;9.206;2023-05-19T09:39:15;2.60;;;1.40;;
7969;SDS011;4030;52.362;9.206;2023-05-19T09:41:42;3.08;;;1.52;;
7969;SDS011;4030;52.362;9.206;2023-05-19T09:44:12;5.88;;;1.45;;
7969;SDS011;4030;52.362;9.206;2023-05-19T09:46:49;3.08;;;1.30;;
7969;SDS011;4030;52.362;9.206;2023-05-19T09:49:20;3.97;;;1.55;;
7969;SDS011;4030;52.362;9.206;2023-05-19T09:51:58;4.22;;;1.55;;
7969;SDS011;4030;52.362;9.206;2023-05-19T09:54:26;4.22;;;1.58;;
7969;SDS011;4030;52.362;9.206;2023-05-19T09:56:57;2.55;;;1.40;;
7969;SDS011;4030;52.362;9.206;2023-05-19T09:59:28;3.40;;;1.42;;
7969;SDS011;4030;52.362;9.206;2023-05-19T10:01:56;2.72;;;1.23;;
7969;SDS011;4030;52.362;9.206;2023-05-19T10:04:23;4.03;;;1.48;;
7969;SDS011;4030;52.362;9.206;2023-05-19T10:06:51;3.10;;;1.58;;
7969;SDS011;4030;52.362;9.206;2023-05-19T10:09:24;3.67;;;1.50;;
7969;SDS011;4030;52.362;9.206;2023-05-19T10:11:55;3.95;;;1.63;;
7969;SDS011;4030;52.362;9.206;2023-05-19T10:14:26;4.10;;;1.63;;
7969;SDS011;4030;52.362;9.206;2023-05-19T10:16:56;7.65;;;1.70;;
7969;SDS011;4030;52.362;9.206;2023-05-19T10:19:26;7.50;;;2.08;;
7969;SDS011;4030;52.362;9.206;2023-05-19T10:21:52;5.07;;;1.95;;
7969;SDS011;4030;52.362;9.206;2023-05-19T10:24:19;6.40;;;1.70;;
7969;SDS011;4030;52.362;9.206;2023-05-19T10:26:47;5.30;;;1.65;;
7969;SDS011;4030;52.362;9.206;2023-05-19T10:29:19;3.60;;;1.40;;
7969;SDS011;4030;52.362;9.206;2023-05-19T10:31:49;3.17;;;1.38;;
7969;SDS011;4030;52.362;9.206;2023-05-19T10:37:04;2.78;;;1.30;;
7969;SDS011;4030;52.362;9.206;2023-05-19T10:39:41;3.67;;;1.10;;
7969;SDS011;4030;52.362;9.206;2023-05-19T10:44:39;2.35;;;1.10;;
7969;SDS011;4030;52.362;9.206;2023-05-19T10:47:40;2.90;;;1.05;;
7969;SDS011;4030;52.362;9.206;2023-05-19T10:50:06;2.50;;;1.10;;
7969;SDS011;4030;52.362;9.206;2023-05-19T10:52:35;4.95;;;1.90;;
7969;SDS011;4030;52.362;9.206;2023-05-19T10:55:02;4.65;;;2.30;;
7969;SDS011;4030;52.362;9.206;2023-05-19T10:57:28;3.33;;;1.85;;
7969;SDS011;4030;52.362;9.206;2023-05-19T10:59:57;4.47;;;1.40;;
7969;SDS011;4030;52.362;9.206;2023-05-19T11:02:46;3.40;;;1.50;;
7969;SDS011;4030;52.362;9.206;2023-05-19T11:05:12;4.78;;;1.42;;
7969;SDS011;4030;52.362;9.206;2023-05-19T11:07:53;2.50;;;1.35;;
7969;SDS011;4030;52.362;9.206;2023-05-19T11:10:23;2.88;;;1.33;;
7969;SDS011;4030;52.362;9.206;2023-05-19T11:12:49;2.75;;;1.30;;
7969;SDS011;4030;52.362;9.206;2023-05-19T11:15:16;3.42;;;1.48;;
7969;SDS011;4030;52.362;9.206;2023-05-19T11:17:44;3.42;;;1.50;;
7969;SDS011;4030;52.362;9.206;2023-05-19T11:20:25;2.78;;;1.52;;
7969;SDS011;4030;52.362;9.206;2023-05-19T11:23:03;4.25;;;1.38;;
7969;SDS011;4030;52.362;9.206;2023-05-19T11:25:47;2.13;;;1.38;;
7969;SDS011;4030;52.362;9.206;2023-05-19T11:28:18;2.72;;;1.58;;
7969;SDS011;4030;52.362;9.206;2023-05-19T11:30:49;2.83;;;1.40;;
7969;SDS011;4030;52.362;9.206;2023-05-19T11:33:18;3.88;;;1.50;;
7969;SDS011;4030;52.362;9.206;2023-05-19T11:35:48;3.17;;;1.23;;
7969;SDS011;4030;52.362;9.206;2023-05-19T11:38:18;1.88;;;1.10;;
7969;SDS011;4030;52.362;9.206;2023-05-19T11:40:44;2.33;;;1.10;;
7969;SDS011;4030;52.362;9.206;2023-05-19T11:43:13;3.67;;;1.17;;
7969;SDS011;4030;52.362;9.206;2023-05-19T11:45:40;8.23;;;1.20;;
7969;SDS011;4030;52.362;9.206;2023-05-19T11:48:10;2.72;;;1.10;;
7969;SDS011;4030;52.362;9.206;2023-05-19T11:50:36;3.03;;;1.00;;
7969;SDS011;4030;52.362;9.206;2023-05-19T11:53:05;1.27;;;1.00;;
7969;SDS011;4030;52.362;9.206;2023-05-19T11:55:31;3.17;;;1.15;;
7969;SDS011;4030;52.362;9.206;2023-05-19T11:57:58;1.83;;;1.10;;
7969;SDS011;4030;52.362;9.206;2023-05-19T12:00:27;1.60;;;1.00;;
7969;SDS011;4030;52.362;9.206;2023-05-19T12:02:55;3.20;;;0.93;;
7969;SDS011;4030;52.362;9.206;2023-05-19T12:05:22;4.57;;;1.30;;
7969;SDS011;4030;52.362;9.206;2023-05-19T12:07:50;3.83;;;1.40;;
7969;SDS011;4030;52.362;9.206;2023-05-19T12:10:21;4.50;;;1.30;;
7969;SDS011;4030;52.362;9.206;2023-05-19T12:12:49;4.00;;;1.30;;
7969;SDS011;4030;52.362;9.206;2023-05-19T12:15:21;4.13;;;1.42;;
7969;SDS011;4030;52.362;9.206;2023-05-19T12:17:51;3.85;;;1.30;;
7969;SDS011;4030;52.362;9.206;2023-05-19T12:20:26;3.28;;;1.23;;
7969;SDS011;4030;52.362;9.206;2023-05-19T12:22:56;2.20;;;1.40;;
7969;SDS011;4030;52.362;9.206;2023-05-19T12:25:22;3.20;;;1.45;;
7969;SDS011;4030;52.362;9.206;2023-05-19T12:27:49;2.08;;;1.08;;
7969;SDS011;4030;52.362;9.206;2023-05-19T12:30:16;4.40;;;1.30;;
7969;SDS011;4030;52.362;9.206;2023-05-19T12:32:44;4.15;;;1.60;;
7969;SDS011;4030;52.362;9.206;2023-05-19T12:35:10;2.72;;;1.25;;
7969;SDS011;4030;52.362;9.206;2023-05-19T12:37:36;3.45;;;1.30;;
7969;SDS011;4030;52.362;9.206;2023-05-19T12:40:06;6.78;;;1.60;;
7969;SDS011;4030;52.362;9.206;2023-05-19T12:42:33;3.95;;;1.08;;
7969;SDS011;4030;52.362;9.206;2023-05-19T12:45:01;3.72;;;1.17;;
7969;SDS011;4030;52.362;9.206;2023-05-19T12:47:29;2.65;;;1.10;;
7969;SDS011;4030;52.362;9.206;2023-05-19T12:52:32;2.33;;;1.10;;
7969;SDS011;4030;52.362;9.206;2023-05-19T12:55:07;3.42;;;1.20;;
7969;SDS011;4030;52.362;9.206;2023-05-19T12:57:35;4.03;;;1.40;;
7969;SDS011;4030;52.362;9.206;2023-05-19T13:00:07;2.88;;;1.25;;
7969;SDS011;4030;52.362;9.206;2023-05-19T13:05:25;3.45;;;1.35;;
7969;SDS011;4030;52.362;9.206;2023-05-19T13:07:56;2.33;;;1.42;;
7969;SDS011;4030;52.362;9.206;2023-05-19T13:10:27;3.15;;;1.30;;
7969;SDS011;4030;52.362;9.206;2023-05-19T13:12:54;2.15;;;1.30;;
7969;SDS011;4030;52.362;9.206;2023-05-19T13:15:21;2.25;;;1.20;;
7969;SDS011;4030;52.362;9.206;2023-05-19T13:17:50;3.00;;;1.20;;
7969;SDS011;4030;52.362;9.206;2023-05-19T13:20:16;1.67;;;1.00;;
7969;SDS011;4030;52.362;9.206;2023-05-19T13:22:41;1.63;;;1.02;;
7969;SDS011;4030;52.362;9.206;2023-05-19T13:25:07;3.33;;;1.17;;
7969;SDS011;4030;52.362;9.206;2023-05-19T13:27:33;2.22;;;1.23;;
7969;SDS011;4030;52.362;9.206;2023-05-19T13:30:00;2.92;;;1.15;;
7969;SDS011;4030;52.362;9.206;2023-05-19T13:32:26;3.05;;;1.23;;
7969;SDS011;4030;52.362;9.206;2023-05-19T13:34:51;4.47;;;1.40;;
7969;SDS011;4030;52.362;9.206;2023-05-19T13:37:17;3.38;;;1.20;;
7969;SDS011;4030;52.362;9.206;2023-05-19T13:39:42;4.45;;;1.30;;
7969;SDS011;4030;52.362;9.206;2023-05-19T13:42:08;1.52;;;1.05;;
7969;SDS011;4030;52.362;9.206;2023-05-19T13:44:34;3.85;;;1.20;;
7969;SDS011;4030;52.362;9.206;2023-05-19T13:46:59;2.42;;;1.10;;
7969;SDS011;4030;52.362;9.206;2023-05-19T13:49:25;2.78;;;1.20;;
7969;SDS011;4030;52.362;9.206;2023-05-19T13:51:54;3.55;;;1.30;;
7969;SDS011;4030;52.362;9.206;2023-05-19T13:54:21;3.63;;;1.10;;
7969;SDS011;4030;52.362;9.206;2023-05-19T13:56:47;2.17;;;1.00;;
7969;SDS011;4030;52.362;9.206;2023-05-19T13:59:13;2.20;;;1.27;;
7969;SDS011;4030;52.362;9.206;2023-05-19T14:01:41;1.42;;;1.00;;
7969;SDS011;4030;52.362;9.206;2023-05-19T14:04:07;2.20;;;1.20;;
7969;SDS011;4030;52.362;9.206;2023-05-19T14:06:34;2.33;;;1.13;;
7969;SDS011;4030;52.362;9.206;2023-05-19T14:09:01;2.45;;;1.10;;
7969;SDS011;4030;52.362;9.206;2023-05-19T14:11:27;3.38;;;1.17;;
7969;SDS011;4030;52.362;9.206;2023-05-19T14:13:52;2.53;;;1.15;;
7969;SDS011;4030;52.362;9.206;2023-05-19T14:16:18;2.22;;;1.25;;
7969;SDS011;4030;52.362;9.206;2023-05-19T14:18:47;3.03;;;1.45;;
7969;SDS011;4030;52.362;9.206;2023-05-19T14:21:13;2.72;;;1.00;;
7969;SDS011;4030;52.362;9.206;2023-05-19T14:23:39;2.70;;;1.20;;
7969;SDS011;4030;52.362;9.206;2023-05-19T14:26:05;3.58;;;1.13;;
7969;SDS011;4030;52.362;9.206;2023-05-19T14:28:31;2.42;;;1.20;;
7969;SDS011;4030;52.362;9.206;2023-05-19T14:30:56;20.83;;;4.18;;
7969;SDS011;4030;52.362;9.206;2023-05-19T14:33:22;28.13;;;4.63;;
7969;SDS011;4030;52.362;9.206;2023-05-19T14:35:48;12.77;;;3.05;;
7969;SDS011;4030;52.362;9.206;2023-05-19T14:38:13;16.00;;;3.22;;
7969;SDS011;4030;52.362;9.206;2023-05-19T14:40:39;15.43;;;2.30;;
7969;SDS011;4030;52.362;9.206;2023-05-19T14:43:05;8.35;;;1.98;;
7969;SDS011;4030;52.362;9.206;2023-05-19T14:45:31;6.32;;;1.75;;
7969;SDS011;4030;52.362;9.206;2023-05-19T14:47:57;5.18;;;1.80;;
7969;SDS011;4030;52.362;9.206;2023-05-19T14:50:23;5.28;;;1.58;;
7969;SDS011;4030;52.362;9.206;2023-05-19T14:52:49;4.18;;;1.50;;
7969;SDS011;4030;52.362;9.206;2023-05-19T14:55:15;3.53;;;1.40;;
7969;SDS011;4030;52.362;9.206;2023-05-19T14:57:40;3.28;;;1.45;;
7969;SDS011;4030;52.362;9.206;2023-05-19T15:00:06;6.13;;;1.00;;
7969;SDS011;4030;52.362;9.206;2023-05-19T15:02:35;5.05;;;1.40;;
7969;SDS011;4030;52.362;9.206;2023-05-19T15:05:01;1.90;;;1.17;;
7969;SDS011;4030;52.362;9.206;2023-05-19T15:07:27;3.38;;;1.20;;
7969;SDS011;4030;52.362;9.206;2023-05-19T15:09:52;5.57;;;1.30;;
7969;SDS011;4030;52.362;9.206;2023-05-19T15:12:18;2.88;;;1.10;;
7969;SDS011;4030;52.362;9.206;2023-05-19T15:14:44;1.38;;;1.00;;
7969;SDS011;4030;52.362;9.206;2023-05-19T15:17:09;1.58;;;1.05;;
7969;SDS011;4030;52.362;9.206;2023-05-19T15:19:35;1.70;;;1.10;;
7969;SDS011;4030;52.362;9.206;2023-05-19T15:22:01;1.85;;;1.00;;
7969;SDS011;4030;52.362;9.206;2023-05-19T15:24:26;2.75;;;1.25;;
7969;SDS011;4030;52.362;9.206;2023-05-19T15:26:52;3.88;;;1.17;;
7969;SDS011;4030;52.362;9.206;2023-05-19T15:29:19;2.08;;;1.27;;
7969;SDS011;4030;52.362;9.206;2023-05-19T15:31:45;1.63;;;1.00;;
7969;SDS011;4030;52.362;9.206;2023-05-19T15:34:14;2.85;;;1.10;;
7969;SDS011;4030;52.362;9.206;2023-05-19T15:36:40;2.28;;;1.20;;
7969;SDS011;4030;52.362;9.206;2023-05-19T15:39:05;2.90;;;1.08;;
7969;SDS011;4030;52.362;9.206;2023-05-19T15:41:31;1.33;;;1.00;;
7969;SDS011;4030;52.362;9.206;2023-05-19T15:43:57;1.65;;;1.10;;
7969;SDS011;4030;52.362;9.206;2023-05-19T15:46:24;1.30;;;1.10;;